Time;durP1;ratioP1;P1;durP2;ratioP2;P2;SDS_P1;SDS_P2;PMS_P1;PMS_P2;Temp;Humidity;BMP_temperature;BMP_pressure;BME280_temperature;BME280_humidity;BME280_pressure;Samples;Min_cycle;Max_cycle;Signal;HPM_P1;HPM_P2
2021/07/19 00:02:02;;;;;;;7.10;3.67;;;24.10;74.80;;;;;;5053084;28;21053;-51
2021/07/19 00:04:31;;;;;;;4.73;4.30;;;24.10;75.30;;;;;;5053806;28;20672;-51
2021/07/19 00:06:59;;;;;;;5.07;3.43;;;24.10;75.80;;;;;;5053068;28;20709;-50
2021/07/19 00:09:26;;;;;;;3.73;3.43;;;24.10;75.60;;;;;;5050130;28;21747;-50
2021/07/19 00:11:54;;;;;;;4.63;3.83;;;24.10;75.60;;;;;;5042405;28;20631;-50
2021/07/19 00:14:21;;;;;;;3.50;3.20;;;24.00;75.50;;;;;;5033202;28;20654;-50
2021/07/19 00:16:48;;;;;;;5.17;3.60;;;24.00;75.60;;;;;;5048453;28;20689;-50
2021/07/19 00:19:15;;;;;;;4.60;4.10;;;23.90;75.50;;;;;;5052974;28;20645;-51
2021/07/19 00:21:42;;;;;;;3.50;3.20;;;23.90;75.70;;;;;;5052020;28;21019;-51
2021/07/19 00:24:11;;;;;;;3.07;2.87;;;23.90;76.00;;;;;;5053120;28;20650;-50
2021/07/19 00:26:38;;;;;;;5.33;3.40;;;23.90;76.20;;;;;;5053266;28;20701;-50
2021/07/19 00:29:05;;;;;;;3.50;3.20;;;23.90;76.90;;;;;;5053370;28;20634;-49
2021/07/19 00:31:34;;;;;;;5.23;3.40;;;23.80;77.70;;;;;;5053275;28;21058;-49
2021/07/19 00:34:01;;;;;;;4.27;3.03;;;23.80;78.10;;;;;;5052978;28;20977;-50
2021/07/19 00:36:29;;;;;;;4.13;3.23;;;23.80;78.30;;;;;;5052817;28;20662;-49
2021/07/19 00:38:56;;;;;;;5.20;3.63;;;23.80;78.90;;;;;;5052973;28;21009;-51
2021/07/19 00:41:25;;;;;;;3.43;3.13;;;23.80;78.90;;;;;;5053360;28;20634;-50
2021/07/19 00:43:52;;;;;;;3.40;3.10;;;23.70;78.80;;;;;;5050009;28;20691;-49
2021/07/19 00:46:19;;;;;;;3.93;3.50;;;23.70;79.10;;;;;;5052388;28;20653;-49
2021/07/19 00:48:46;;;;;;;7.73;4.20;;;23.70;79.30;;;;;;5052802;28;20619;-51
2021/07/19 00:51:13;;;;;;;6.07;3.20;;;23.70;79.70;;;;;;5052239;28;21289;-50
2021/07/19 00:53:41;;;;;;;3.80;3.50;;;23.70;80.10;;;;;;5052389;28;20675;-51
2021/07/19 00:56:08;;;;;;;4.13;3.73;;;23.60;80.10;;;;;;5052495;28;21216;-50
2021/07/19 00:58:38;;;;;;;3.47;3.17;;;23.60;79.90;;;;;;5052356;28;20657;-50
2021/07/19 01:01:05;;;;;;;5.23;3.80;;;23.60;79.60;;;;;;5052501;28;20625;-51
2021/07/19 01:03:32;;;;;;;6.20;4.00;;;23.60;80.10;;;;;;5052372;28;20696;-50
2021/07/19 01:06:00;;;;;;;5.60;4.07;;;23.60;80.40;;;;;;5052163;28;21205;-50
2021/07/19 01:08:28;;;;;;;5.70;3.67;;;23.60;80.90;;;;;;5051879;28;20666;-51
2021/07/19 01:10:55;;;;;;;6.90;3.30;;;23.60;81.00;;;;;;5051863;28;20634;-51
2021/07/19 01:13:22;;;;;;;6.33;3.90;;;23.50;81.00;;;;;;5051898;28;20709;-51
2021/07/19 01:15:51;;;;;;;6.17;3.23;;;23.50;81.20;;;;;;5051728;28;20671;-51
2021/07/19 01:18:18;;;;;;;4.37;3.97;;;23.50;81.30;;;;;;5051767;28;20669;-49
2021/07/19 01:20:59;;;;;;;3.87;3.57;;;23.40;81.40;;;;;;5052270;28;21236;-51
2021/07/19 01:23:35;;;;;;;5.70;3.40;;;23.40;81.70;;;;;;5052050;28;20634;-51
2021/07/19 01:26:17;;;;;;;4.07;3.00;;;23.40;81.70;;;;;;5048006;28;21144;-49
2021/07/19 01:28:46;;;;;;;5.23;4.10;;;23.40;82.00;;;;;;5047628;28;20680;-50
2021/07/19 01:31:15;;;;;;;4.43;3.67;;;23.40;82.40;;;;;;5051704;28;20684;-51
2021/07/19 01:33:43;;;;;;;4.10;3.47;;;23.30;82.30;;;;;;5051480;28;20646;-51
2021/07/19 01:36:11;;;;;;;4.33;3.67;;;23.30;82.50;;;;;;5051202;28;20626;-51
2021/07/19 01:38:38;;;;;;;4.17;3.77;;;23.30;83.30;;;;;;5051595;28;20701;-49
2021/07/19 01:41:06;;;;;;;5.97;4.20;;;23.30;83.80;;;;;;5050978;28;21277;-49
2021/07/19 01:43:33;;;;;;;4.37;3.90;;;23.20;83.30;;;;;;5051353;28;20669;-50
2021/07/19 01:46:02;;;;;;;5.30;3.43;;;23.20;83.30;;;;;;5051118;28;21266;-50
2021/07/19 01:48:30;;;;;;;5.67;4.23;;;23.20;83.60;;;;;;5052202;28;20737;-50
2021/07/19 01:50:58;;;;;;;4.73;4.23;;;23.30;83.70;;;;;;5051433;28;20661;-50
2021/07/19 01:53:25;;;;;;;5.20;3.70;;;23.20;83.20;;;;;;5051495;28;20662;-50
2021/07/19 01:55:53;;;;;;;4.07;3.67;;;23.20;83.20;;;;;;5051735;28;21317;-50
2021/07/19 01:58:20;;;;;;;4.70;3.87;;;23.10;83.50;;;;;;5051326;28;20677;-50
2021/07/19 02:00:47;;;;;;;5.90;4.03;;;23.10;83.90;;;;;;5050991;28;20665;-50
2021/07/19 02:03:16;;;;;;;4.63;4.03;;;23.00;83.60;;;;;;5051209;28;20653;-51
2021/07/19 02:05:43;;;;;;;3.73;3.43;;;23.00;84.40;;;;;;5051354;28;20657;-49
2021/07/19 02:08:11;;;;;;;4.23;3.70;;;23.00;84.10;;;;;;5049361;28;20673;-50
2021/07/19 02:10:38;;;;;;;4.70;4.20;;;22.90;84.40;;;;;;5051586;28;20623;-51
2021/07/19 02:13:06;;;;;;;4.10;3.80;;;22.90;84.50;;;;;;5050942;28;20657;-50
2021/07/19 02:15:33;;;;;;;5.20;4.53;;;22.90;84.40;;;;;;5050586;28;20630;-50
2021/07/19 02:18:01;;;;;;;5.13;4.17;;;22.90;84.70;;;;;;5051442;28;21301;-50
2021/07/19 02:20:30;;;;;;;3.80;3.50;;;22.80;84.70;;;;;;5050497;28;21235;-51
2021/07/19 02:22:57;;;;;;;3.80;3.50;;;22.80;85.10;;;;;;5051182;28;20618;-50
2021/07/19 02:25:25;;;;;;;3.83;3.47;;;22.70;85.50;;;;;;5050766;28;20653;-50
2021/07/19 02:27:52;;;;;;;8.83;4.07;;;22.70;85.80;;;;;;5051251;28;20724;-50
2021/07/19 02:30:20;;;;;;;3.77;3.47;;;22.70;86.30;;;;;;5051100;28;20617;-50
2021/07/19 02:32:50;;;;;;;4.17;3.70;;;22.70;86.50;;;;;;5050881;28;20661;-50
2021/07/19 02:35:17;;;;;;;4.87;4.37;;;22.60;86.70;;;;;;5051045;28;20669;-50
2021/07/19 02:37:47;;;;;;;5.93;4.10;;;22.60;87.00;;;;;;5050671;28;20685;-50
2021/07/19 02:40:15;;;;;;;4.10;3.67;;;22.60;87.10;;;;;;5050907;28;21003;-49
2021/07/19 02:42:43;;;;;;;4.23;3.83;;;22.60;86.90;;;;;;5050384;28;20632;-50
2021/07/19 02:45:14;;;;;;;5.77;3.70;;;22.60;87.20;;;;;;5046890;28;20666;-50
2021/07/19 02:47:42;;;;;;;8.93;4.57;;;22.60;87.50;;;;;;5050629;28;20735;-51
2021/07/19 02:50:10;;;;;;;4.30;3.57;;;22.50;87.60;;;;;;5051044;28;21276;-50
2021/07/19 02:52:37;;;;;;;9.10;4.00;;;22.50;87.30;;;;;;5050267;28;20657;-50
2021/07/19 02:55:07;;;;;;;4.83;4.43;;;22.50;87.50;;;;;;5050663;28;20654;-50
2021/07/19 02:57:35;;;;;;;4.10;3.80;;;22.50;87.70;;;;;;5050500;28;20654;-49
2021/07/19 03:00:02;;;;;;;6.67;5.00;;;22.50;87.90;;;;;;5050573;28;20654;-50
2021/07/19 03:02:29;;;;;;;4.87;4.47;;;22.50;88.00;;;;;;5050964;28;20668;-49
2021/07/19 03:04:56;;;;;;;4.70;4.20;;;22.40;87.90;;;;;;5050859;28;20637;-49
2021/07/19 03:07:24;;;;;;;4.33;3.90;;;22.40;87.90;;;;;;5050467;28;20710;-51
2021/07/19 03:09:54;;;;;;;6.60;4.30;;;22.40;88.30;;;;;;5050200;28;20626;-50
2021/07/19 03:12:23;;;;;;;6.53;4.20;;;22.40;88.60;;;;;;5050790;28;20634;-50
2021/07/19 03:14:51;;;;;;;5.60;5.10;;;22.40;88.60;;;;;;5050441;28;21209;-50
2021/07/19 03:17:18;;;;;;;4.67;4.30;;;22.30;88.60;;;;;;5050562;28;20662;-50
2021/07/19 03:19:45;;;;;;;5.20;4.80;;;22.30;88.50;;;;;;5050260;28;20633;-50
2021/07/19 03:22:13;;;;;;;4.73;4.20;;;22.30;88.80;;;;;;5050463;28;21190;-50
2021/07/19 03:24:40;;;;;;;5.00;4.60;;;22.30;89.20;;;;;;5048670;28;20646;-50
2021/07/19 03:27:07;;;;;;;6.63;6.07;;;22.20;89.50;;;;;;5047875;28;21087;-49
2021/07/19 03:29:36;;;;;;;5.27;4.73;;;22.20;89.40;;;;;;5050538;28;20672;-51
2021/07/19 03:32:03;;;;;;;4.60;4.30;;;22.20;89.60;;;;;;5050335;28;20668;-50
2021/07/19 03:34:30;;;;;;;4.77;4.30;;;22.20;90.00;;;;;;5054400;28;20625;-50
2021/07/19 03:36:57;;;;;;;5.60;5.07;;;22.20;90.10;;;;;;5053178;28;20757;-49
2021/07/19 03:39:25;;;;;;;5.60;5.07;;;22.10;90.00;;;;;;5053830;28;20634;-50
2021/07/19 03:41:52;;;;;;;5.90;5.10;;;22.10;89.80;;;;;;5053507;28;20679;-50
2021/07/19 03:44:20;;;;;;;6.20;4.90;;;22.10;90.00;;;;;;5053640;28;20634;-48
2021/07/19 03:46:48;;;;;;;6.00;5.50;;;22.10;90.10;;;;;;5053684;28;20669;-50
2021/07/19 03:49:17;;;;;;;5.93;4.70;;;22.00;90.20;;;;;;5053908;28;20674;-50
2021/07/19 03:51:44;;;;;;;5.90;5.13;;;22.00;90.40;;;;;;5053491;28;20998;-49
2021/07/19 03:54:12;;;;;;;8.20;5.03;;;22.00;90.50;;;;;;5053292;28;20634;-50
2021/07/19 03:56:39;;;;;;;5.73;5.33;;;22.00;90.50;;;;;;5053472;28;20692;-50
2021/07/19 03:59:07;;;;;;;6.67;5.83;;;22.00;90.60;;;;;;5053328;28;20657;-50
2021/07/19 04:01:34;;;;;;;6.50;5.90;;;22.00;90.70;;;;;;5052951;28;20666;-49
2021/07/19 04:04:06;;;;;;;6.33;5.73;;;21.90;90.60;;;;;;5053490;28;20748;-50
2021/07/19 04:06:33;;;;;;;6.25;5.70;;;21.90;90.70;;;;;;5053291;28;20661;-51
2021/07/19 04:09:01;;;;;;;9.03;7.20;;;22.00;90.90;;;;;;5053601;28;20676;-51
2021/07/19 04:11:28;;;;;;;6.43;5.90;;;22.00;91.00;;;;;;5053147;28;20665;-52
2021/07/19 04:13:55;;;;;;;10.80;6.33;;;22.00;91.10;;;;;;5053102;28;21171;-50
2021/07/19 04:16:23;;;;;;;6.37;5.80;;;21.90;91.10;;;;;;5053522;28;20679;-51
2021/07/19 04:18:50;;;;;;;9.70;6.53;;;22.00;91.20;;;;;;5053276;28;20714;-51
2021/07/19 04:21:20;;;;;;;6.43;5.83;;;21.90;91.30;;;;;;5053148;28;20622;-51
2021/07/19 04:23:47;;;;;;;5.70;5.20;;;21.90;91.40;;;;;;5053547;28;20630;-51
2021/07/19 04:26:15;;;;;;;5.57;5.10;;;21.90;91.40;;;;;;5053307;28;21183;-50
2021/07/19 04:28:44;;;;;;;7.07;5.37;;;21.90;91.40;;;;;;5052957;28;20650;-51
2021/07/19 04:31:14;;;;;;;5.57;4.53;;;21.90;91.30;;;;;;5052723;28;20650;-50
2021/07/19 04:33:44;;;;;;;5.73;4.43;;;22.00;91.50;;;;;;5052453;28;20638;-51
2021/07/19 04:36:11;;;;;;;4.67;4.20;;;21.90;91.30;;;;;;5052622;28;20658;-49
2021/07/19 04:38:40;;;;;;;5.13;4.73;;;21.90;91.40;;;;;;5052282;28;20699;-50
2021/07/19 04:41:07;;;;;;;4.70;4.40;;;21.90;91.50;;;;;;5053014;28;20659;-50
2021/07/19 04:43:34;;;;;;;6.43;5.37;;;21.90;91.60;;;;;;5051736;28;20983;-49
2021/07/19 04:46:02;;;;;;;6.40;5.60;;;21.90;91.60;;;;;;5036439;28;20697;-50
2021/07/19 04:48:29;;;;;;;4.93;4.43;;;21.90;91.70;;;;;;5032533;28;20706;-51
2021/07/19 04:50:56;;;;;;;4.60;4.30;;;21.90;91.70;;;;;;5032651;28;21204;-49
2021/07/19 04:53:23;;;;;;;4.80;4.30;;;21.90;91.70;;;;;;5052101;28;21030;-50
2021/07/19 04:55:53;;;;;;;5.80;5.30;;;22.00;91.90;;;;;;5052544;28;20629;-51
2021/07/19 04:58:22;;;;;;;6.40;4.43;;;21.90;91.90;;;;;;5052397;28;20646;-50
2021/07/19 05:00:51;;;;;;;7.40;5.10;;;21.90;91.90;;;;;;5052172;28;20653;-51
2021/07/19 05:03:18;;;;;;;5.57;5.20;;;21.90;91.90;;;;;;5052419;28;20625;-50
2021/07/19 05:05:46;;;;;;;4.87;4.47;;;21.90;91.90;;;;;;5051702;28;20654;-50
2021/07/19 05:08:13;;;;;;;8.20;5.00;;;21.90;92.30;;;;;;5052479;28;20690;-50
2021/07/19 05:10:40;;;;;;;5.30;4.30;;;21.90;92.00;;;;;;5051738;28;20653;-50
2021/07/19 05:13:10;;;;;;;7.87;4.77;;;22.00;92.10;;;;;;5051494;28;20653;-50
2021/07/19 05:15:39;;;;;;;5.20;4.67;;;21.90;92.10;;;;;;5051486;28;20741;-50
2021/07/19 05:18:06;;;;;;;5.10;4.67;;;22.00;92.20;;;;;;5051916;28;20681;-49
2021/07/19 05:20:34;;;;;;;5.00;4.60;;;22.00;92.20;;;;;;5051241;28;20658;-50
2021/07/19 05:23:01;;;;;;;5.47;4.87;;;22.00;92.30;;;;;;5051394;28;20672;-50
2021/07/19 05:25:30;;;;;;;7.57;5.20;;;22.00;92.30;;;;;;5051022;28;20660;-50
2021/07/19 05:28:06;;;;;;;4.63;4.10;;;22.00;92.30;;;;;;5051351;28;20763;-51
2021/07/19 05:30:35;;;;;;;5.80;5.30;;;22.00;92.40;;;;;;5051611;28;20657;-50
2021/07/19 05:33:02;;;;;;;4.80;4.37;;;22.10;92.50;;;;;;5051152;28;20638;-49
2021/07/19 05:35:30;;;;;;;9.97;4.50;;;22.10;92.50;;;;;;5051351;28;20629;-50
2021/07/19 05:37:57;;;;;;;6.00;5.10;;;22.10;92.60;;;;;;5052048;28;20685;-49
2021/07/19 05:40:24;;;;;;;6.00;5.40;;;22.10;92.70;;;;;;5051455;28;21198;-50
2021/07/19 05:42:51;;;;;;;7.20;5.40;;;22.10;92.80;;;;;;5051348;28;20665;-49
2021/07/19 05:45:19;;;;;;;29.37;13.93;;;22.10;93.00;;;;;;5051215;28;20626;-49
2021/07/19 05:47:47;;;;;;;11.27;6.97;;;22.10;93.00;;;;;;5051447;28;20702;-49
2021/07/19 05:50:15;;;;;;;7.43;5.10;;;22.20;93.00;;;;;;5051146;28;20630;-50
2021/07/19 05:52:42;;;;;;;6.80;4.60;;;22.20;93.00;;;;;;5050863;28;20662;-49
2021/07/19 05:55:10;;;;;;;9.77;5.05;;;22.20;93.10;;;;;;5050155;28;20791;-48
2021/07/19 05:57:37;;;;;;;6.63;5.77;;;22.30;93.20;;;;;;5052655;28;20232;-46
2021/07/19 06:00:07;;;;;;;13.23;5.10;;;22.30;92.90;;;;;;5056107;28;20626;-47
2021/07/19 06:02:34;;;;;;;5.80;5.30;;;22.40;92.80;;;;;;5053273;28;20633;-46
2021/07/19 06:05:03;;;;;;;8.97;6.00;;;22.40;92.70;;;;;;5052315;28;20672;-46
2021/07/19 06:07:30;;;;;;;7.77;5.03;;;22.40;92.80;;;;;;5052018;28;20658;-46
2021/07/19 06:09:58;;;;;;;6.07;4.80;;;22.50;92.80;;;;;;5051169;28;20669;-47
2021/07/19 06:12:25;;;;;;;5.80;4.40;;;22.40;92.70;;;;;;5051597;28;20646;-46
2021/07/19 06:14:52;;;;;;;4.40;4.00;;;22.50;92.80;;;;;;5052357;28;20634;-47
2021/07/19 06:17:20;;;;;;;6.90;5.50;;;22.50;92.70;;;;;;5056108;28;20658;-45
2021/07/19 06:19:47;;;;;;;4.90;4.43;;;22.40;92.80;;;;;;5055484;28;20767;-45
2021/07/19 06:22:16;;;;;;;7.53;4.90;;;22.50;93.10;;;;;;5052687;28;20617;-47
2021/07/19 06:24:44;;;;;;;9.03;5.00;;;22.60;92.60;;;;;;5052269;28;20978;-46
2021/07/19 06:27:12;;;;;;;8.53;4.60;;;22.60;92.70;;;;;;5052136;28;20657;-48
2021/07/19 06:29:39;;;;;;;6.20;5.17;;;22.60;92.80;;;;;;5051323;28;20690;-47
2021/07/19 06:32:07;;;;;;;5.87;5.17;;;22.60;92.80;;;;;;5052534;28;20629;-47
2021/07/19 06:34:34;;;;;;;5.53;4.87;;;22.70;92.70;;;;;;5051865;28;20694;-48
2021/07/19 06:37:03;;;;;;;4.97;4.37;;;22.70;92.70;;;;;;5051655;28;20681;-47
2021/07/19 06:39:32;;;;;;;5.33;4.93;;;22.70;92.60;;;;;;5050272;28;20672;-47
2021/07/19 06:41:59;;;;;;;5.83;5.07;;;22.80;92.50;;;;;;5050416;28;20633;-47
2021/07/19 06:44:26;;;;;;;6.40;4.67;;;22.80;92.30;;;;;;5050622;28;20662;-48
2021/07/19 06:46:56;;;;;;;6.80;5.47;;;22.90;92.40;;;;;;5030508;28;20666;-47
2021/07/19 06:49:24;;;;;;;6.50;5.90;;;23.00;91.80;;;;;;5042811;28;20693;-48
2021/07/19 06:51:51;;;;;;;5.43;5.03;;;23.00;91.50;;;;;;5036120;28;20653;-45
2021/07/19 06:54:18;;;;;;;6.10;5.60;;;23.00;91.70;;;;;;5049566;28;20649;-46
2021/07/19 06:56:47;;;;;;;5.93;5.40;;;23.10;91.60;;;;;;5051277;28;20686;-47
2021/07/19 06:59:14;;;;;;;6.93;4.80;;;23.10;91.60;;;;;;5050811;28;20618;-46
2021/07/19 07:01:42;;;;;;;9.13;4.63;;;23.10;91.50;;;;;;5050792;28;20661;-47
2021/07/19 07:04:09;;;;;;;10.60;4.60;;;23.10;91.40;;;;;;5050252;28;20629;-47
2021/07/19 07:06:36;;;;;;;5.70;5.20;;;23.10;91.70;;;;;;5050664;28;20654;-47
2021/07/19 07:09:04;;;;;;;5.80;5.20;;;23.10;91.60;;;;;;5054333;28;20807;-47
2021/07/19 07:11:31;;;;;;;9.80;5.80;;;23.20;91.40;;;;;;5055863;28;20294;-51
2021/07/19 07:13:59;;;;;;;9.60;5.33;;;23.30;91.20;;;;;;5054337;28;20652;-47
2021/07/19 07:16:27;;;;;;;6.17;5.60;;;23.40;91.50;;;;;;5054068;28;20657;-46
2021/07/19 07:18:55;;;;;;;5.00;4.43;;;23.40;91.20;;;;;;5053958;28;20646;-49
2021/07/19 07:21:22;;;;;;;5.13;4.70;;;23.40;91.00;;;;;;5054568;28;20669;-48
2021/07/19 07:23:50;;;;;;;7.73;5.43;;;23.40;90.70;;;;;;5053930;28;20626;-48
2021/07/19 07:26:17;;;;;;;6.77;4.63;;;23.40;90.60;;;;;;5036859;28;21226;-48
2021/07/19 07:28:45;;;;;;;6.47;4.57;;;23.40;90.60;;;;;;5034343;28;21215;-50
2021/07/19 07:31:14;;;;;;;10.27;4.73;;;23.40;90.30;;;;;;5033030;28;20637;-50
2021/07/19 07:33:41;;;;;;;7.20;5.27;;;23.50;90.40;;;;;;5033918;28;20858;-52
2021/07/19 07:36:08;;;;;;;4.33;3.20;;;23.50;90.40;;;;;;5043603;28;20638;-50
2021/07/19 07:38:35;;;;;;;6.40;5.07;;;23.60;90.30;;;;;;5053406;28;20814;-50
2021/07/19 07:41:03;;;;;;;4.97;4.53;;;23.70;90.20;;;;;;5053052;28;20199;-51
2021/07/19 07:43:30;;;;;;;6.03;4.27;;;23.70;90.10;;;;;;5053159;28;20637;-50
2021/07/19 07:45:57;;;;;;;9.27;5.23;;;23.70;90.00;;;;;;5053121;28;20629;-51
2021/07/19 07:48:26;;;;;;;9.10;4.50;;;23.70;89.30;;;;;;5052973;28;20719;-52
2021/07/19 07:50:54;;;;;;;6.80;4.50;;;23.60;89.50;;;;;;5053541;28;20721;-52
2021/07/19 07:53:21;;;;;;;6.93;4.30;;;23.60;89.60;;;;;;5052562;28;20747;-52
2021/07/19 07:55:48;;;;;;;7.03;4.80;;;23.60;89.60;;;;;;5053149;28;21167;-50
2021/07/19 07:58:15;;;;;;;6.93;5.90;;;23.60;89.60;;;;;;5052783;28;20653;-51
2021/07/19 08:00:42;;;;;;;5.70;5.20;;;23.60;89.40;;;;;;5052470;28;20657;-51
2021/07/19 08:03:10;;;;;;;5.77;5.17;;;23.60;89.40;;;;;;5052766;28;20634;-52
2021/07/19 08:05:38;;;;;;;8.97;4.90;;;23.60;89.20;;;;;;5052913;28;20662;-49
2021/07/19 08:08:06;;;;;;;6.80;4.60;;;23.70;89.20;;;;;;5052685;28;20685;-49
2021/07/19 08:10:34;;;;;;;6.37;5.20;;;23.80;88.80;;;;;;5052855;28;20725;-48
2021/07/19 08:13:01;;;;;;;8.73;4.70;;;23.90;88.30;;;;;;5052684;28;21252;-49
2021/07/19 08:15:28;;;;;;;5.37;4.87;;;24.00;87.50;;;;;;5052277;28;20661;-50
2021/07/19 08:17:55;;;;;;;6.70;5.07;;;24.10;87.20;;;;;;5052735;28;21242;-50
2021/07/19 08:20:23;;;;;;;5.20;4.37;;;24.10;86.50;;;;;;5050300;28;20684;-49
2021/07/19 08:22:51;;;;;;;7.70;4.53;;;24.10;86.00;;;;;;5052811;28;20669;-48
2021/07/19 08:25:19;;;;;;;5.60;4.50;;;24.10;85.60;;;;;;5052497;28;21004;-48
2021/07/19 08:27:46;;;;;;;5.83;5.23;;;24.10;86.00;;;;;;5052389;28;20680;-49
2021/07/19 08:30:14;;;;;;;7.20;6.37;;;24.10;85.80;;;;;;5050623;28;20689;-49
2021/07/19 08:32:41;;;;;;;7.80;5.17;;;24.20;85.00;;;;;;5052607;28;20674;-51
2021/07/19 08:35:10;;;;;;;5.30;4.80;;;24.10;84.50;;;;;;5052479;28;20654;-49
2021/07/19 08:37:38;;;;;;;4.77;4.30;;;24.00;84.20;;;;;;5052346;28;20650;-50
2021/07/19 08:40:08;;;;;;;5.57;5.03;;;24.00;84.80;;;;;;5052764;28;20661;-49
2021/07/19 08:42:35;;;;;;;5.23;4.73;;;24.00;84.60;;;;;;5051473;28;20630;-50
2021/07/19 08:45:04;;;;;;;7.47;5.60;;;24.10;84.80;;;;;;5051682;28;20713;-49
2021/07/19 08:47:31;;;;;;;28.40;25.63;;;24.10;84.60;;;;;;5053168;28;21356;-47
2021/07/19 08:49:59;;;;;;;9.43;6.30;;;24.10;83.30;;;;;;5053008;28;20669;-47
2021/07/19 08:52:26;;;;;;;6.97;6.23;;;24.10;82.90;;;;;;5052063;28;20652;-48
2021/07/19 08:54:53;;;;;;;7.30;5.50;;;24.10;82.30;;;;;;5052444;28;20625;-48
2021/07/19 08:57:23;;;;;;;5.70;5.10;;;24.10;83.00;;;;;;5052102;28;20677;-49
2021/07/19 08:59:50;;;;;;;5.10;4.70;;;24.10;82.60;;;;;;5052123;28;20671;-49
2021/07/19 09:02:18;;;;;;;7.87;5.33;;;24.10;82.30;;;;;;5051594;28;21222;-48
2021/07/19 09:04:45;;;;;;;8.23;5.00;;;24.00;82.10;;;;;;5052105;28;20622;-48
2021/07/19 09:07:13;;;;;;;5.57;5.07;;;24.00;83.10;;;;;;5052604;28;20703;-48
2021/07/19 09:09:42;;;;;;;5.67;4.90;;;24.10;82.70;;;;;;5052136;28;20757;-47
2021/07/19 09:12:09;;;;;;;10.20;5.73;;;24.10;82.00;;;;;;5050410;28;20629;-50
2021/07/19 09:14:41;;;;;;;6.37;5.77;;;24.20;81.90;;;;;;5031921;28;20657;-49
2021/07/19 09:17:08;;;;;;;7.10;6.37;;;24.30;81.30;;;;;;5032438;28;20678;-50
2021/07/19 09:19:42;;;;;;;11.17;5.40;;;24.30;80.60;;;;;;5031633;28;20623;-48
2021/07/19 09:22:09;;;;;;;7.67;5.10;;;24.30;79.90;;;;;;5031860;28;20662;-48
2021/07/19 09:24:37;;;;;;;8.77;6.70;;;24.30;79.90;;;;;;5031991;28;20627;-49
2021/07/19 09:27:04;;;;;;;6.80;6.20;;;24.30;79.40;;;;;;5032759;28;20663;-47
2021/07/19 09:29:37;;;;;;;8.77;6.90;;;24.30;78.90;;;;;;5031586;28;20687;-47
2021/07/19 09:32:07;;;;;;;5.03;4.53;;;24.40;78.70;;;;;;5033080;28;21013;-48
2021/07/19 09:34:34;;;;;;;6.87;5.57;;;24.50;77.90;;;;;;5032050;28;21212;-49
2021/07/19 09:37:04;;;;;;;11.00;10.00;;;24.70;77.90;;;;;;5049045;28;20740;-49
2021/07/19 09:39:33;;;;;;;26.20;23.47;;;24.70;76.50;;;;;;5051397;28;20646;-50
2021/07/19 09:42:07;;;;;;;17.33;6.60;;;24.70;75.90;;;;;;5051125;28;21195;-50
2021/07/19 09:44:34;;;;;;;7.00;4.67;;;24.80;75.70;;;;;;5051400;28;20658;-49
2021/07/19 09:47:02;;;;;;;6.60;5.43;;;24.80;75.30;;;;;;5049899;28;20723;-49
2021/07/19 09:49:31;;;;;;;6.40;5.57;;;24.70;75.50;;;;;;5051268;28;20811;-48
2021/07/19 09:51:59;;;;;;;8.23;5.83;;;24.70;74.90;;;;;;5051255;28;20993;-49
2021/07/19 09:54:33;;;;;;;6.70;5.80;;;24.60;74.60;;;;;;5051240;28;20618;-49
2021/07/19 09:57:00;;;;;;;7.63;6.00;;;24.60;74.70;;;;;;5051143;28;20693;-50
2021/07/19 09:59:27;;;;;;;5.37;4.87;;;24.60;75.30;;;;;;5050979;28;20658;-48
2021/07/19 10:01:55;;;;;;;11.40;5.83;;;24.60;75.20;;;;;;5050286;28;20673;-49
2021/07/19 10:04:22;;;;;;;8.30;4.80;;;24.60;75.30;;;;;;5051000;28;20622;-48
2021/07/19 10:06:51;;;;;;;7.43;5.20;;;24.60;75.10;;;;;;5050401;28;20698;-48
2021/07/19 10:09:19;;;;;;;6.03;5.43;;;24.60;74.80;;;;;;5051533;28;20664;-48
2021/07/19 10:11:48;;;;;;;13.90;5.47;;;24.70;74.30;;;;;;5050753;28;20618;-49
2021/07/19 10:14:26;;;;;;;5.03;4.63;;;24.60;74.20;;;;;;5050585;28;20630;-50
2021/07/19 10:16:54;;;;;;;8.90;5.47;;;24.60;74.40;;;;;;5050194;28;20685;-51
2021/07/19 10:19:21;;;;;;;7.20;5.60;;;24.60;74.40;;;;;;5049347;28;21148;-51
2021/07/19 10:21:50;;;;;;;7.43;5.80;;;24.70;76.10;;;;;;5050615;28;21254;-51
2021/07/19 10:24:17;;;;;;;6.20;5.70;;;24.70;75.30;;;;;;5050667;28;20682;-53
2021/07/19 10:26:45;;;;;;;6.13;5.53;;;24.70;75.00;;;;;;5050333;28;20690;-49
2021/07/19 10:29:13;;;;;;;6.67;5.90;;;24.70;74.00;;;;;;5050614;28;20621;-50
2021/07/19 10:31:40;;;;;;;7.90;5.17;;;24.80;73.60;;;;;;5050267;28;20686;-49
2021/07/19 10:34:07;;;;;;;6.37;5.70;;;24.80;73.50;;;;;;5050341;28;20626;-50
2021/07/19 10:36:36;;;;;;;7.40;6.60;;;24.80;73.90;;;;;;5050168;28;20664;-51
2021/07/19 10:39:09;;;;;;;6.97;6.27;;;24.80;73.10;;;;;;5049344;28;20645;-51
2021/07/19 10:41:36;;;;;;;10.67;6.00;;;24.90;72.90;;;;;;5049866;28;20653;-50
2021/07/19 10:44:05;;;;;;;7.50;6.80;;;24.90;72.80;;;;;;5054437;28;20669;-51
2021/07/19 10:46:32;;;;;;;6.83;6.23;;;24.90;71.50;;;;;;5054792;28;21297;-51
2021/07/19 10:49:21;;;;;;;6.30;5.80;;;24.90;71.00;;;;;;5054346;28;20668;-55
2021/07/19 10:51:48;;;;;;;7.60;6.60;;;24.90;71.70;;;;;;5054030;28;20689;-50
2021/07/19 10:54:18;;;;;;;10.13;8.60;;;24.90;71.90;;;;;;5054200;28;20657;-54
2021/07/19 10:56:46;;;;;;;7.67;6.83;;;24.90;72.00;;;;;;5054128;28;20689;-50
2021/07/19 10:59:23;;;;;;;7.03;6.30;;;24.90;71.60;;;;;;5053977;28;20662;-50
2021/07/19 11:01:54;;;;;;;7.77;7.00;;;25.00;71.50;;;;;;5054085;28;20656;-50
2021/07/19 11:04:22;;;;;;;6.03;5.53;;;25.00;71.00;;;;;;5053554;28;20657;-50
2021/07/19 11:06:56;;;;;;;7.93;7.03;;;25.10;70.90;;;;;;5054001;28;21273;-50
2021/07/19 11:09:33;;;;;;;8.93;8.07;;;25.10;70.20;;;;;;5054256;28;20675;-49
2021/07/19 11:12:07;;;;;;;7.67;6.93;;;25.10;69.70;;;;;;5053964;28;20689;-50
2021/07/19 11:14:41;;;;;;;9.50;8.20;;;25.10;68.90;;;;;;5054674;28;20661;-50
2021/07/19 11:17:09;;;;;;;8.97;8.07;;;25.10;67.90;;;;;;5053678;28;20688;-50
2021/07/19 11:19:39;;;;;;;10.30;8.87;;;25.10;68.40;;;;;;5053314;28;20658;-50
2021/07/19 11:22:07;;;;;;;9.07;8.20;;;25.10;68.50;;;;;;5053671;28;20609;-50
2021/07/19 11:24:41;;;;;;;9.87;8.93;;;25.10;67.90;;;;;;5054114;28;20949;-50
2021/07/19 11:27:08;;;;;;;10.00;9.00;;;25.10;67.50;;;;;;5053675;28;21279;-51
2021/07/19 11:29:36;;;;;;;10.23;9.13;;;25.10;66.10;;;;;;5053425;28;20886;-50
2021/07/19 11:32:12;;;;;;;8.93;8.03;;;25.10;65.90;;;;;;5053669;28;20697;-50
2021/07/19 11:34:39;;;;;;;10.00;9.10;;;25.10;66.20;;;;;;5054036;28;20691;-50
2021/07/19 11:37:06;;;;;;;9.80;8.47;;;25.10;66.20;;;;;;5054135;28;20689;-49
2021/07/19 11:39:48;;;;;;;10.43;9.53;;;25.10;66.00;;;;;;5053492;28;20660;-51
2021/07/19 11:42:16;;;;;;;9.63;8.77;;;25.20;65.10;;;;;;5053738;28;20649;-50
2021/07/19 11:44:44;;;;;;;9.20;8.37;;;25.20;64.80;;;;;;5050610;28;21272;-50
2021/07/19 11:47:11;;;;;;;11.57;10.37;;;25.20;64.60;;;;;;5051853;28;20716;-51
2021/07/19 11:49:38;;;;;;;9.60;8.70;;;25.30;64.60;;;;;;5053254;28;20696;-52
2021/07/19 11:52:09;;;;;;;11.37;10.17;;;25.30;63.50;;;;;;5054025;28;20692;-52
2021/07/19 11:54:38;;;;;;;11.10;10.10;;;25.40;63.30;;;;;;5053410;28;20987;-55
2021/07/19 11:57:09;;;;;;;10.50;9.50;;;25.70;62.00;;;;;;5053438;28;20689;-53
2021/07/19 11:59:38;;;;;;;12.57;11.13;;;25.60;63.70;;;;;;5053307;28;20707;-53
2021/07/19 12:02:05;;;;;;;11.77;10.50;;;25.50;62.50;;;;;;5052870;28;20658;-53
2021/07/19 12:04:39;;;;;;;10.87;9.97;;;25.50;63.30;;;;;;5053448;28;20622;-53
2021/07/19 12:07:06;;;;;;;11.33;10.23;;;25.50;63.10;;;;;;5052659;28;20693;-53
2021/07/19 12:09:34;;;;;;;10.97;9.97;;;25.60;61.50;;;;;;5053177;28;20664;-51
2021/07/19 12:12:02;;;;;;;11.60;10.43;;;25.70;61.40;;;;;;5052485;28;20708;-49
2021/07/19 12:14:31;;;;;;;10.93;9.93;;;25.70;59.70;;;;;;5052806;28;21194;-48
2021/07/19 12:16:58;;;;;;;10.60;9.60;;;25.70;59.90;;;;;;5052764;28;20740;-49
2021/07/19 12:19:26;;;;;;;11.67;9.83;;;25.60;59.70;;;;;;5052810;28;20998;-51
2021/07/19 12:21:55;;;;;;;10.10;9.20;;;25.60;60.40;;;;;;5052524;28;21186;-49
2021/07/19 12:24:25;;;;;;;11.70;10.60;;;25.60;59.70;;;;;;5052987;28;20982;-51
2021/07/19 12:26:54;;;;;;;11.67;10.57;;;25.60;59.70;;;;;;5052365;28;20690;-49
2021/07/19 12:29:25;;;;;;;11.17;10.03;;;25.60;59.50;;;;;;5052535;28;20658;-52
2021/07/19 12:31:54;;;;;;;13.67;11.23;;;25.70;59.10;;;;;;5052344;28;20862;-51
2021/07/19 12:34:22;;;;;;;9.53;8.63;;;25.70;59.20;;;;;;5053022;28;20918;-51
2021/07/19 12:36:51;;;;;;;11.60;10.60;;;25.70;59.00;;;;;;5052061;28;20701;-49
2021/07/19 12:39:20;;;;;;;13.27;12.07;;;25.70;58.00;;;;;;5052745;28;20658;-50
2021/07/19 12:41:48;;;;;;;13.60;11.77;;;25.80;58.40;;;;;;5051980;28;20626;-52
2021/07/19 12:44:15;;;;;;;12.63;11.33;;;25.80;58.30;;;;;;5052147;28;20650;-50
2021/07/19 12:46:43;;;;;;;14.33;13.10;;;25.80;58.40;;;;;;5052363;28;20705;-51
2021/07/19 12:49:12;;;;;;;13.83;12.60;;;25.90;58.00;;;;;;5051883;28;21016;-51
2021/07/19 12:51:42;;;;;;;16.40;10.70;;;26.00;57.90;;;;;;5052416;28;20689;-50